EHWO/WOE METAR and TAF weather

Enter ICAO airport designator
Station Type Date Time Source
EHWO METAR 2021/09/25 03:25 UTC NOAA

EHWO 250325Z AUTO 22005KT 9999 OVC053 15/13 Q1015 BLU


Station Type Date Time Source
EHWO Decoded METAR 2021/09/25 03:25 UTC NOAA

Woensdrecht, Netherlands (EHWO) 51-27N 004-20E 17M
Sep 24, 2021 - 11:25 PM EDT / 2021.09.25 0325 UTC
Wind: from the SW (220 degrees) at 6 MPH (5 KT):0
Visibility: greater than 7 mile(s):0
Sky conditions: overcast
Temperature: 59 F (15 C)
Dew Point: 55 F (13 C)
Relative Humidity: 87%
Pressure (altimeter): 29.97 in. Hg (1015 hPa)
ob: EHWO 250325Z AUTO 22005KT 9999 OVC053 15/13 Q1015 BLU
cycle: 3

Station Type Date Time Source
EHWO TAF 2021/09/24 09:48 UTC NOAA

TAF TAF COR EHWO 240941Z 2409/2421 24007KT 9999 SCT008 BKN010
BECMG 2409/2411 26010KT FEW015 BKN020

Example: see airport list